sensor_id;sensor_type;location;lat;lon;timestamp;pressure;altitude;pressure_sealevel;temperature;humidity
9419;BME280;4748;50.802;7.132;2023-01-28T00:00:33;102136.06;;;4.89;100.00
9419;BME280;4748;50.802;7.132;2023-01-28T00:02:59;102141.66;;;4.86;100.00
9419;BME280;4748;50.802;7.132;2023-01-28T00:05:24;102140.94;;;4.84;100.00
9419;BME280;4748;50.802;7.132;2023-01-28T00:07:50;102145.28;;;4.85;100.00
9419;BME280;4748;50.802;7.132;2023-01-28T00:10:15;102145.56;;;4.82;100.00
9419;BME280;4748;50.802;7.132;2023-01-28T00:12:41;102142.09;;;4.82;100.00
9419;BME280;4748;50.802;7.132;2023-01-28T00:15:07;102136.94;;;4.80;100.00
9419;BME280;4748;50.802;7.132;2023-01-28T00:17:34;102137.91;;;4.79;100.00
9419;BME280;4748;50.802;7.132;2023-01-28T00:20:01;102137.91;;;4.79;100.00
9419;BME280;4748;50.802;7.132;2023-01-28T00:22:26;102126.34;;;4.80;100.00
9419;BME280;4748;50.802;7.132;2023-01-28T00:24:51;102128.84;;;4.82;100.00
9419;BME280;4748;50.802;7.132;2023-01-28T00:27:17;102130.63;;;4.81;100.00
9419;BME280;4748;50.802;7.132;2023-01-28T00:29:42;102124.66;;;4.79;100.00
9419;BME280;4748;50.802;7.132;2023-01-28T00:32:07;102128.84;;;4.82;100.00
9419;BME280;4748;50.802;7.132;2023-01-28T00:34:33;102126.34;;;4.80;100.00
9419;BME280;4748;50.802;7.132;2023-01-28T00:36:58;102116.69;;;4.79;100.00
9419;BME280;4748;50.802;7.132;2023-01-28T00:39:24;102114.63;;;4.73;100.00
9419;BME280;4748;50.802;7.132;2023-01-28T00:41:50;102124.09;;;4.76;100.00
9419;BME280;4748;50.802;7.132;2023-01-28T00:44:16;102132.91;;;4.76;100.00
9419;BME280;4748;50.802;7.132;2023-01-28T00:46:41;102120.47;;;4.77;100.00
9419;BME280;4748;50.802;7.132;2023-01-28T00:49:07;102122.69;;;4.81;100.00
9419;BME280;4748;50.802;7.132;2023-01-28T00:51:32;102125.09;;;4.75;100.00
9419;BME280;4748;50.802;7.132;2023-01-28T00:53:57;102133.88;;;4.75;100.00
9419;BME280;4748;50.802;7.132;2023-01-28T00:56:23;102136.16;;;4.70;100.00
9419;BME280;4748;50.802;7.132;2023-01-28T00:58:48;102130.13;;;4.68;100.00
9419;BME280;4748;50.802;7.132;2023-01-28T01:03:39;102141.75;;;4.67;100.00
9419;BME280;4748;50.802;7.132;2023-01-28T01:06:05;102133.38;;;4.62;100.00
9419;BME280;4748;50.802;7.132;2023-01-28T01:08:31;102133.81;;;4.58;100.00
9419;BME280;4748;50.802;7.132;2023-01-28T01:11:03;102122.38;;;4.57;100.00
9419;BME280;4748;50.802;7.132;2023-01-28T01:13:29;102131.75;;;4.52;100.00
9419;BME280;4748;50.802;7.132;2023-01-28T01:16:04;102134.53;;;4.51;100.00
9419;BME280;4748;50.802;7.132;2023-01-28T01:18:30;102128.81;;;4.46;100.00
9419;BME280;4748;50.802;7.132;2023-01-28T01:20:56;102124.91;;;4.50;100.00
9419;BME280;4748;50.802;7.132;2023-01-28T01:23:25;102120.34;;;4.42;100.00
9419;BME280;4748;50.802;7.132;2023-01-28T01:25:50;102128.44;;;4.41;100.00
9419;BME280;4748;50.802;7.132;2023-01-28T01:28:16;102123.44;;;4.28;100.00
9419;BME280;4748;50.802;7.132;2023-01-28T01:30:41;102129.63;;;4.19;100.00
9419;BME280;4748;50.802;7.132;2023-01-28T01:33:07;102129.47;;;4.11;100.00
9419;BME280;4748;50.802;7.132;2023-01-28T01:35:32;102127.94;;;4.09;100.00
9419;BME280;4748;50.802;7.132;2023-01-28T01:37:57;102121.25;;;4.05;100.00
9419;BME280;4748;50.802;7.132;2023-01-28T01:40:23;102136.06;;;3.98;100.00
9419;BME280;4748;50.802;7.132;2023-01-28T01:42:48;102133.28;;;3.90;100.00
9419;BME280;4748;50.802;7.132;2023-01-28T01:45:14;102137.44;;;3.83;100.00
9419;BME280;4748;50.802;7.132;2023-01-28T01:47:47;102130.50;;;3.63;100.00
9419;BME280;4748;50.802;7.132;2023-01-28T01:52:46;102116.41;;;3.53;100.00
9419;BME280;4748;50.802;7.132;2023-01-28T01:55:18;102126.88;;;3.46;100.00
9419;BME280;4748;50.802;7.132;2023-01-28T01:57:47;102121.28;;;3.39;100.00
9419;BME280;4748;50.802;7.132;2023-01-28T02:00:14;102131.56;;;3.33;100.00
9419;BME280;4748;50.802;7.132;2023-01-28T02:02:42;102137.13;;;3.30;100.00
9419;BME280;4748;50.802;7.132;2023-01-28T02:05:09;102141.47;;;3.31;100.00
9419;BME280;4748;50.802;7.132;2023-01-28T02:07:35;102141.75;;;3.28;100.00
9419;BME280;4748;50.802;7.132;2023-01-28T02:10:02;102150.91;;;3.24;100.00
9419;BME280;4748;50.802;7.132;2023-01-28T02:12:32;102147.59;;;3.22;100.00
9419;BME280;4748;50.802;7.132;2023-01-28T02:15:06;102158.44;;;3.19;100.00
9419;BME280;4748;50.802;7.132;2023-01-28T02:17:32;102155.66;;;3.20;100.00
9419;BME280;4748;50.802;7.132;2023-01-28T02:20:04;102151.75;;;3.15;100.00
9419;BME280;4748;50.802;7.132;2023-01-28T02:30:54;102160.19;;;3.00;100.00
9419;BME280;4748;50.802;7.132;2023-01-28T02:33:49;102157.50;;;2.90;100.00
9419;BME280;4748;50.802;7.132;2023-01-28T02:38:52;102160.13;;;2.81;100.00
9419;BME280;4748;50.802;7.132;2023-01-28T02:41:24;102159.94;;;2.73;100.00
9419;BME280;4748;50.802;7.132;2023-01-28T02:43:52;102153.38;;;2.67;100.00
9419;BME280;4748;50.802;7.132;2023-01-28T02:49:13;102154.44;;;2.55;100.00
9419;BME280;4748;50.802;7.132;2023-01-28T02:54:38;102159.53;;;2.48;100.00
9419;BME280;4748;50.802;7.132;2023-01-28T02:57:19;102168.00;;;2.42;100.00
9419;BME280;4748;50.802;7.132;2023-01-28T03:00:18;102161.56;;;2.35;100.00
9419;BME280;4748;50.802;7.132;2023-01-28T03:05:36;102172.66;;;2.29;100.00
9419;BME280;4748;50.802;7.132;2023-01-28T03:08:04;102182.38;;;2.28;100.00
9419;BME280;4748;50.802;7.132;2023-01-28T03:10:52;102184.16;;;2.28;100.00
9419;BME280;4748;50.802;7.132;2023-01-28T03:13:39;102176.78;;;2.22;100.00
9419;BME280;4748;50.802;7.132;2023-01-28T03:16:23;102182.19;;;2.20;100.00
9419;BME280;4748;50.802;7.132;2023-01-28T03:19:08;102190.94;;;2.21;100.00
9419;BME280;4748;50.802;7.132;2023-01-28T03:21:53;102184.13;;;2.18;100.00
9419;BME280;4748;50.802;7.132;2023-01-28T03:24:43;102192.44;;;2.14;100.00
9419;BME280;4748;50.802;7.132;2023-01-28T03:27:41;102189.19;;;2.10;100.00
9419;BME280;4748;50.802;7.132;2023-01-28T03:30:33;102189.59;;;2.06;100.00
9419;BME280;4748;50.802;7.132;2023-01-28T03:33:21;102186.13;;;2.05;100.00
9419;BME280;4748;50.802;7.132;2023-01-28T03:36:06;102191.06;;;1.99;100.00
9419;BME280;4748;50.802;7.132;2023-01-28T03:38:50;102192.75;;;2.00;100.00
9419;BME280;4748;50.802;7.132;2023-01-28T03:41:20;102201.63;;;1.99;100.00
9419;BME280;4748;50.802;7.132;2023-01-28T03:43:47;102197.16;;;2.00;100.00
9419;BME280;4748;50.802;7.132;2023-01-28T03:46:12;102195.91;;;1.94;100.00
9419;BME280;4748;50.802;7.132;2023-01-28T03:48:37;102200.44;;;1.92;100.00
9419;BME280;4748;50.802;7.132;2023-01-28T03:51:03;102201.28;;;1.93;100.00
9419;BME280;4748;50.802;7.132;2023-01-28T03:53:28;102191.84;;;1.90;100.00
9419;BME280;4748;50.802;7.132;2023-01-28T03:55:54;102191.69;;;1.92;100.00
9419;BME280;4748;50.802;7.132;2023-01-28T03:58:23;102190.97;;;1.90;100.00
9419;BME280;4748;50.802;7.132;2023-01-28T04:01:11;102207.94;;;1.87;100.00
9419;BME280;4748;50.802;7.132;2023-01-28T04:03:37;102206.25;;;1.86;100.00
9419;BME280;4748;50.802;7.132;2023-01-28T04:06:03;102208.19;;;1.84;100.00
9419;BME280;4748;50.802;7.132;2023-01-28T04:08:29;102211.78;;;1.83;100.00
9419;BME280;4748;50.802;7.132;2023-01-28T04:10:55;102206.28;;;1.75;100.00
9419;BME280;4748;50.802;7.132;2023-01-28T04:13:20;102197.41;;;1.76;100.00
9419;BME280;4748;50.802;7.132;2023-01-28T04:15:46;102221.41;;;1.73;100.00
9419;BME280;4748;50.802;7.132;2023-01-28T04:18:12;102224.16;;;1.72;100.00
9419;BME280;4748;50.802;7.132;2023-01-28T04:20:38;102217.94;;;1.73;100.00
9419;BME280;4748;50.802;7.132;2023-01-28T04:23:04;102212.75;;;1.71;100.00
9419;BME280;4748;50.802;7.132;2023-01-28T04:25:30;102208.84;;;1.66;100.00
9419;BME280;4748;50.802;7.132;2023-01-28T04:27:56;102215.31;;;1.62;100.00
9419;BME280;4748;50.802;7.132;2023-01-28T04:30:21;102214.72;;;1.58;100.00
9419;BME280;4748;50.802;7.132;2023-01-28T04:32:47;102212.81;;;1.60;100.00
9419;BME280;4748;50.802;7.132;2023-01-28T04:35:15;102214.00;;;1.56;100.00
9419;BME280;4748;50.802;7.132;2023-01-28T04:37:40;102210.44;;;1.57;100.00
9419;BME280;4748;50.802;7.132;2023-01-28T04:40:06;102214.72;;;1.58;100.00
9419;BME280;4748;50.802;7.132;2023-01-28T04:42:32;102214.00;;;1.56;100.00
9419;BME280;4748;50.802;7.132;2023-01-28T04:44:57;102226.97;;;1.49;100.00
9419;BME280;4748;50.802;7.132;2023-01-28T04:47:23;102219.78;;;1.51;100.00
9419;BME280;4748;50.802;7.132;2023-01-28T04:49:48;102225.06;;;1.51;100.00
9419;BME280;4748;50.802;7.132;2023-01-28T04:52:13;102229.38;;;1.51;100.00
9419;BME280;4748;50.802;7.132;2023-01-28T04:54:39;102221.44;;;1.51;100.00
9419;BME280;4748;50.802;7.132;2023-01-28T04:57:04;102229.28;;;1.53;100.00
9419;BME280;4748;50.802;7.132;2023-01-28T04:59:29;102229.38;;;1.51;100.00
9419;BME280;4748;50.802;7.132;2023-01-28T05:01:55;102236.44;;;1.51;100.00
9419;BME280;4748;50.802;7.132;2023-01-28T05:04:20;102229.38;;;1.51;100.00
9419;BME280;4748;50.802;7.132;2023-01-28T05:06:45;102223.75;;;1.56;100.00
9419;BME280;4748;50.802;7.132;2023-01-28T05:09:11;102224.56;;;1.56;100.00
9419;BME280;4748;50.802;7.132;2023-01-28T05:11:36;102221.22;;;1.54;100.00
9419;BME280;4748;50.802;7.132;2023-01-28T05:14:01;102219.28;;;1.56;100.00
9419;BME280;4748;50.802;7.132;2023-01-28T05:16:27;102222.19;;;1.53;100.00
9419;BME280;4748;50.802;7.132;2023-01-28T05:18:52;102239.91;;;1.51;100.00
9419;BME280;4748;50.802;7.132;2023-01-28T05:21:18;102238.00;;;1.53;100.00
9419;BME280;4748;50.802;7.132;2023-01-28T05:23:43;102238.38;;;1.49;100.00
9419;BME280;4748;50.802;7.132;2023-01-28T05:26:09;102240.03;;;1.50;100.00
9419;BME280;4748;50.802;7.132;2023-01-28T05:28:35;102245.94;;;1.53;100.00
9419;BME280;4748;50.802;7.132;2023-01-28T05:31:04;102239.44;;;1.57;100.00
9419;BME280;4748;50.802;7.132;2023-01-28T05:33:30;102246.38;;;1.58;100.00
9419;BME280;4748;50.802;7.132;2023-01-28T05:35:56;102241.72;;;1.62;100.00
9419;BME280;4748;50.802;7.132;2023-01-28T05:38:21;102240.50;;;1.66;100.00
9419;BME280;4748;50.802;7.132;2023-01-28T05:40:47;102244.19;;;1.74;100.00
9419;BME280;4748;50.802;7.132;2023-01-28T05:43:12;102234.34;;;1.76;100.00
9419;BME280;4748;50.802;7.132;2023-01-28T05:45:38;102233.13;;;1.80;100.00
9419;BME280;4748;50.802;7.132;2023-01-28T05:48:03;102268.16;;;1.82;100.00
9419;BME280;4748;50.802;7.132;2023-01-28T05:50:29;102244.63;;;1.90;100.00
9419;BME280;4748;50.802;7.132;2023-01-28T05:52:54;102243.50;;;1.93;100.00
9419;BME280;4748;50.802;7.132;2023-01-28T05:55:19;102243.63;;;1.91;100.00
9419;BME280;4748;50.802;7.132;2023-01-28T05:57:45;102254.06;;;1.93;100.00
9419;BME280;4748;50.802;7.132;2023-01-28T06:00:10;102272.44;;;1.94;100.00
9419;BME280;4748;50.802;7.132;2023-01-28T06:02:36;102273.03;;;1.98;100.00
9419;BME280;4748;50.802;7.132;2023-01-28T06:05:02;102270.25;;;1.99;100.00
9419;BME280;4748;50.802;7.132;2023-01-28T06:07:27;102269.75;;;2.05;100.00
9419;BME280;4748;50.802;7.132;2023-01-28T06:09:52;102276.34;;;2.10;100.00
9419;BME280;4748;50.802;7.132;2023-01-28T06:12:18;102273.56;;;2.12;100.00
9419;BME280;4748;50.802;7.132;2023-01-28T06:14:43;102277.63;;;2.16;100.00
9419;BME280;4748;50.802;7.132;2023-01-28T06:17:09;102259.84;;;2.18;100.00
9419;BME280;4748;50.802;7.132;2023-01-28T06:19:34;102274.47;;;2.22;100.00
9419;BME280;4748;50.802;7.132;2023-01-28T06:21:59;102287.69;;;2.22;100.00
9419;BME280;4748;50.802;7.132;2023-01-28T06:24:25;102276.88;;;2.25;100.00
9419;BME280;4748;50.802;7.132;2023-01-28T06:26:50;102289.81;;;2.28;100.00
9419;BME280;4748;50.802;7.132;2023-01-28T06:29:15;102287.19;;;2.28;100.00
9419;BME280;4748;50.802;7.132;2023-01-28T06:31:41;102294.16;;;2.29;100.00
9419;BME280;4748;50.802;7.132;2023-01-28T06:34:08;102293.63;;;2.35;100.00
9419;BME280;4748;50.802;7.132;2023-01-28T06:36:34;102282.53;;;2.41;100.00
9419;BME280;4748;50.802;7.132;2023-01-28T06:39:00;102292.03;;;2.43;100.00
9419;BME280;4748;50.802;7.132;2023-01-28T06:41:25;102299.69;;;2.46;100.00
9419;BME280;4748;50.802;7.132;2023-01-28T06:43:51;102288.44;;;2.44;100.00
9419;BME280;4748;50.802;7.132;2023-01-28T06:46:16;102296.78;;;2.49;100.00
9419;BME280;4748;50.802;7.132;2023-01-28T06:48:42;102297.53;;;2.51;100.00
9419;BME280;4748;50.802;7.132;2023-01-28T06:51:07;102310.59;;;2.53;100.00
9419;BME280;4748;50.802;7.132;2023-01-28T06:53:32;102301.59;;;2.55;100.00
9419;BME280;4748;50.802;7.132;2023-01-28T06:55:58;102300.47;;;2.57;100.00
9419;BME280;4748;50.802;7.132;2023-01-28T06:58:23;102299.38;;;2.60;100.00
9419;BME280;4748;50.802;7.132;2023-01-28T07:00:48;102306.38;;;2.61;100.00
9419;BME280;4748;50.802;7.132;2023-01-28T07:03:14;102299.53;;;2.58;100.00
9419;BME280;4748;50.802;7.132;2023-01-28T07:05:39;102297.22;;;2.65;100.00
9419;BME280;4748;50.802;7.132;2023-01-28T07:08:05;102301.38;;;2.67;100.00
9419;BME280;4748;50.802;7.132;2023-01-28T07:10:30;102306.66;;;2.67;100.00
9419;BME280;4748;50.802;7.132;2023-01-28T07:12:56;102309.78;;;2.72;100.00
9419;BME280;4748;50.802;7.132;2023-01-28T07:15:21;102304.63;;;2.71;100.00
9419;BME280;4748;50.802;7.132;2023-01-28T07:17:46;102301.84;;;2.72;100.00
9419;BME280;4748;50.802;7.132;2023-01-28T07:20:13;102299.06;;;2.74;100.00
9419;BME280;4748;50.802;7.132;2023-01-28T07:22:40;102298.34;;;2.72;100.00
9419;BME280;4748;50.802;7.132;2023-01-28T07:25:07;102302.81;;;2.71;100.00
9419;BME280;4748;50.802;7.132;2023-01-28T07:27:33;102305.31;;;2.73;100.00
9419;BME280;4748;50.802;7.132;2023-01-28T07:29:58;102310.88;;;2.70;100.00
9419;BME280;4748;50.802;7.132;2023-01-28T07:32:24;102313.59;;;2.79;100.00
9419;BME280;4748;50.802;7.132;2023-01-28T07:34:52;102312.34;;;2.83;100.00
9419;BME280;4748;50.802;7.132;2023-01-28T07:37:17;102307.91;;;2.84;100.00
9419;BME280;4748;50.802;7.132;2023-01-28T07:39:43;102337.13;;;2.82;100.00
9419;BME280;4748;50.802;7.132;2023-01-28T07:42:08;102320.47;;;2.91;100.00
9419;BME280;4748;50.802;7.132;2023-01-28T07:44:34;102325.88;;;2.90;100.00
9419;BME280;4748;50.802;7.132;2023-01-28T07:47:01;102333.25;;;2.86;100.00
9419;BME280;4748;50.802;7.132;2023-01-28T07:49:26;102321.69;;;2.87;100.00
9419;BME280;4748;50.802;7.132;2023-01-28T07:51:51;102329.06;;;2.84;100.00
9419;BME280;4748;50.802;7.132;2023-01-28T07:54:17;102330.59;;;2.86;100.00
9419;BME280;4748;50.802;7.132;2023-01-28T07:56:42;102344.13;;;2.93;100.00
9419;BME280;4748;50.802;7.132;2023-01-28T07:59:08;102329.94;;;2.94;100.00
9419;BME280;4748;50.802;7.132;2023-01-28T08:01:33;102327.47;;;3.02;100.00
9419;BME280;4748;50.802;7.132;2023-01-28T08:03:58;102350.19;;;3.04;100.00
9419;BME280;4748;50.802;7.132;2023-01-28T08:06:23;102326.38;;;3.04;100.00
9419;BME280;4748;50.802;7.132;2023-01-28T08:08:49;102330.97;;;3.02;100.00
9419;BME280;4748;50.802;7.132;2023-01-28T08:11:15;102327.25;;;3.04;100.00
9419;BME280;4748;50.802;7.132;2023-01-28T08:13:40;102326.84;;;3.09;100.00
9419;BME280;4748;50.802;7.132;2023-01-28T08:16:06;102334.00;;;3.18;100.00
9419;BME280;4748;50.802;7.132;2023-01-28T08:18:31;102329.84;;;3.25;100.00
9419;BME280;4748;50.802;7.132;2023-01-28T08:20:57;102324.03;;;3.31;100.00
9419;BME280;4748;50.802;7.132;2023-01-28T08:23:24;102333.78;;;3.30;100.00
9419;BME280;4748;50.802;7.132;2023-01-28T08:25:51;102337.00;;;3.34;100.00
9419;BME280;4748;50.802;7.132;2023-01-28T08:28:18;102340.09;;;3.39;100.00
9419;BME280;4748;50.802;7.132;2023-01-28T08:30:44;102333.94;;;3.38;100.00
9419;BME280;4748;50.802;7.132;2023-01-28T08:33:11;102343.63;;;3.49;100.00
9419;BME280;4748;50.802;7.132;2023-01-28T08:35:38;102349.19;;;3.46;100.00
9419;BME280;4748;50.802;7.132;2023-01-28T08:38:05;102355.44;;;3.45;100.00
9419;BME280;4748;50.802;7.132;2023-01-28T08:40:30;102361.59;;;3.54;100.00
9419;BME280;4748;50.802;7.132;2023-01-28T08:42:56;102350.28;;;3.53;100.00
9419;BME280;4748;50.802;7.132;2023-01-28T08:45:23;102354.19;;;3.49;100.00
9419;BME280;4748;50.802;7.132;2023-01-28T08:47:53;102351.03;;;3.54;100.00
9419;BME280;4748;50.802;7.132;2023-01-28T08:50:20;102347.41;;;3.55;100.00
9419;BME280;4748;50.802;7.132;2023-01-28T08:52:47;102350.75;;;3.57;100.00
9419;BME280;4748;50.802;7.132;2023-01-28T08:55:14;102353.25;;;3.59;100.00
9419;BME280;4748;50.802;7.132;2023-01-28T08:57:40;102377.91;;;3.59;100.00
9419;BME280;4748;50.802;7.132;2023-01-28T09:00:06;102381.56;;;3.58;100.00
9419;BME280;4748;50.802;7.132;2023-01-28T09:02:32;102367.19;;;3.61;100.00
9419;BME280;4748;50.802;7.132;2023-01-28T09:04:58;102374.09;;;3.73;100.00
9419;BME280;4748;50.802;7.132;2023-01-28T09:07:24;102371.56;;;3.71;100.00
9419;BME280;4748;50.802;7.132;2023-01-28T09:09:49;102374.94;;;3.83;100.00
9419;BME280;4748;50.802;7.132;2023-01-28T09:12:14;102371.03;;;3.77;100.00
9419;BME280;4748;50.802;7.132;2023-01-28T09:14:41;102374.09;;;3.82;100.00
9419;BME280;4748;50.802;7.132;2023-01-28T09:17:06;102398.19;;;3.79;100.00
9419;BME280;4748;50.802;7.132;2023-01-28T09:19:31;102383.38;;;3.67;100.00
9419;BME280;4748;50.802;7.132;2023-01-28T09:21:57;102383.38;;;3.67;100.00
9419;BME280;4748;50.802;7.132;2023-01-28T09:24:22;102391.06;;;3.70;100.00
9419;BME280;4748;50.802;7.132;2023-01-28T09:26:48;102397.91;;;3.73;100.00
9419;BME280;4748;50.802;7.132;2023-01-28T09:29:14;102384.94;;;3.70;100.00
9419;BME280;4748;50.802;7.132;2023-01-28T09:31:40;102403.88;;;3.65;100.00
9419;BME280;4748;50.802;7.132;2023-01-28T09:34:07;102405.66;;;3.65;100.00
9419;BME280;4748;50.802;7.132;2023-01-28T09:36:32;102410.00;;;3.66;100.00
9419;BME280;4748;50.802;7.132;2023-01-28T09:38:57;102405.84;;;3.73;100.00
9419;BME280;4748;50.802;7.132;2023-01-28T09:41:28;102404.84;;;3.74;100.00
9419;BME280;4748;50.802;7.132;2023-01-28T09:44:18;102424.13;;;3.76;100.00
9419;BME280;4748;50.802;7.132;2023-01-28T09:46:48;102430.97;;;3.78;100.00
9419;BME280;4748;50.802;7.132;2023-01-28T09:49:21;102421.50;;;3.85;100.00
9419;BME280;4748;50.802;7.132;2023-01-28T09:51:51;102425.81;;;3.86;100.00
9419;BME280;4748;50.802;7.132;2023-01-28T09:54:54;102428.59;;;3.75;100.00
9419;BME280;4748;50.802;7.132;2023-01-28T09:57:25;102434.31;;;3.80;100.00
9419;BME280;4748;50.802;7.132;2023-01-28T09:59:54;102442.44;;;3.88;100.00
9419;BME280;4748;50.802;7.132;2023-01-28T10:10:19;102451.63;;;3.84;100.00
9419;BME280;4748;50.802;7.132;2023-01-28T10:12:56;102439.00;;;3.67;100.00
9419;BME280;4748;50.802;7.132;2023-01-28T10:15:49;102442.66;;;3.76;100.00
9419;BME280;4748;50.802;7.132;2023-01-28T10:18:24;102451.97;;;3.70;100.00
9419;BME280;4748;50.802;7.132;2023-01-28T10:20:54;102449.31;;;3.70;100.00
9419;BME280;4748;50.802;7.132;2023-01-28T10:23:27;102444.00;;;3.70;100.00
9419;BME280;4748;50.802;7.132;2023-01-28T10:25:57;102442.66;;;3.76;100.00
9419;BME280;4748;50.802;7.132;2023-01-28T10:28:28;102436.97;;;3.80;100.00
9419;BME280;4748;50.802;7.132;2023-01-28T10:30:54;102434.97;;;3.73;100.00
9419;BME280;4748;50.802;7.132;2023-01-28T10:35:51;102441.16;;;3.83;100.00
9419;BME280;4748;50.802;7.132;2023-01-28T10:38:23;102437.91;;;3.79;100.00
9419;BME280;4748;50.802;7.132;2023-01-28T10:40:50;102441.28;;;3.81;100.00
9419;BME280;4748;50.802;7.132;2023-01-28T10:43:20;102444.09;;;3.89;100.00
9419;BME280;4748;50.802;7.132;2023-01-28T10:46:09;102446.72;;;3.80;100.00
9419;BME280;4748;50.802;7.132;2023-01-28T10:51:11;102444.81;;;3.91;100.00
9419;BME280;4748;50.802;7.132;2023-01-28T10:53:39;102446.75;;;3.89;100.00
9419;BME280;4748;50.802;7.132;2023-01-28T10:56:23;102440.13;;;4.04;100.00
9419;BME280;4748;50.802;7.132;2023-01-28T10:58:57;102430.91;;;3.99;100.00
9419;BME280;4748;50.802;7.132;2023-01-28T11:01:24;102441.28;;;4.20;100.00
9419;BME280;4748;50.802;7.132;2023-01-28T11:03:54;102436.94;;;4.10;100.00
9419;BME280;4748;50.802;7.132;2023-01-28T11:06:28;102425.25;;;4.22;100.00
9419;BME280;4748;50.802;7.132;2023-01-28T11:08:54;102428.56;;;4.14;100.00
9419;BME280;4748;50.802;7.132;2023-01-28T11:11:24;102435.28;;;4.18;100.00
9419;BME280;4748;50.802;7.132;2023-01-28T11:13:52;102440.31;;;4.21;100.00
9419;BME280;4748;50.802;7.132;2023-01-28T11:16:19;102436.44;;;4.25;100.00
9419;BME280;4748;50.802;7.132;2023-01-28T11:18:59;102436.16;;;4.28;100.00
9419;BME280;4748;50.802;7.132;2023-01-28T11:21:29;102445.47;;;4.23;100.00
9419;BME280;4748;50.802;7.132;2023-01-28T11:24:04;102445.66;;;4.40;100.00
9419;BME280;4748;50.802;7.132;2023-01-28T11:26:39;102435.78;;;4.42;100.00
9419;BME280;4748;50.802;7.132;2023-01-28T11:29:40;102434.78;;;4.43;100.00
9419;BME280;4748;50.802;7.132;2023-01-28T11:32:16;102432.22;;;4.23;100.00
9419;BME280;4748;50.802;7.132;2023-01-28T11:34:52;102427.25;;;4.39;100.00
9419;BME280;4748;50.802;7.132;2023-01-28T11:37:20;102431.03;;;4.36;100.00
9419;BME280;4748;50.802;7.132;2023-01-28T11:39:47;102426.00;;;4.43;100.00
9419;BME280;4748;50.802;7.132;2023-01-28T11:42:19;102429.19;;;4.46;100.00
9419;BME280;4748;50.802;7.132;2023-01-28T11:44:45;102428.94;;;4.58;100.00
9419;BME280;4748;50.802;7.132;2023-01-28T11:50:51;102436.19;;;4.47;100.00
9419;BME280;4748;50.802;7.132;2023-01-28T11:58:56;102443.84;;;4.31;100.00
9419;BME280;4748;50.802;7.132;2023-01-28T12:04:32;102443.97;;;4.30;100.00
9419;BME280;4748;50.802;7.132;2023-01-28T12:09:54;102426.94;;;4.23;100.00
9419;BME280;4748;50.802;7.132;2023-01-28T12:21:00;102415.63;;;4.21;100.00
9419;BME280;4748;50.802;7.132;2023-01-28T12:26:09;102429.16;;;4.18;100.00
9419;BME280;4748;50.802;7.132;2023-01-28T12:37:30;102421.34;;;4.26;100.00
9419;BME280;4748;50.802;7.132;2023-01-28T12:43:05;102413.56;;;4.34;100.00
9419;BME280;4748;50.802;7.132;2023-01-28T12:45:44;102412.72;;;4.24;100.00
9419;BME280;4748;50.802;7.132;2023-01-28T12:48:13;102408.25;;;4.24;100.00
9419;BME280;4748;50.802;7.132;2023-01-28T12:53:43;102415.78;;;4.19;100.00
9419;BME280;4748;50.802;7.132;2023-01-28T12:56:15;102406.31;;;4.26;100.00
9419;BME280;4748;50.802;7.132;2023-01-28T12:58:55;102404.22;;;4.30;100.00
9419;BME280;4748;50.802;7.132;2023-01-28T13:01:43;102405.91;;;4.31;100.00
9419;BME280;4748;50.802;7.132;2023-01-28T13:07:02;102423.31;;;4.24;100.00
9419;BME280;4748;50.802;7.132;2023-01-28T13:09:30;102415.47;;;4.13;100.00
9419;BME280;4748;50.802;7.132;2023-01-28T13:11:59;102412.84;;;4.22;100.00
9419;BME280;4748;50.802;7.132;2023-01-28T13:14:29;102403.09;;;4.32;100.00
9419;BME280;4748;50.802;7.132;2023-01-28T13:17:07;102395.41;;;4.20;100.00
9419;BME280;4748;50.802;7.132;2023-01-28T13:19:40;102417.78;;;4.36;100.00
9419;BME280;4748;50.802;7.132;2023-01-28T13:22:31;102409.81;;;4.46;100.00
9419;BME280;4748;50.802;7.132;2023-01-28T13:27:54;102379.00;;;4.63;100.00
9419;BME280;4748;50.802;7.132;2023-01-28T13:30:26;102392.09;;;4.55;100.00
9419;BME280;4748;50.802;7.132;2023-01-28T13:32:57;102383.72;;;4.60;100.00
9419;BME280;4748;50.802;7.132;2023-01-28T13:37:59;102388.59;;;4.46;100.00
9419;BME280;4748;50.802;7.132;2023-01-28T13:40:30;102378.97;;;4.35;100.00
9419;BME280;4748;50.802;7.132;2023-01-28T13:43:02;102375.19;;;4.28;100.00
9419;BME280;4748;50.802;7.132;2023-01-28T13:45:28;102378.28;;;4.43;100.00
9419;BME280;4748;50.802;7.132;2023-01-28T13:47:59;102364.59;;;4.47;100.00
9419;BME280;4748;50.802;7.132;2023-01-28T13:50:32;102363.34;;;4.32;100.00
9419;BME280;4748;50.802;7.132;2023-01-28T13:53:13;102351.63;;;4.25;100.00
9419;BME280;4748;50.802;7.132;2023-01-28T13:55:43;102324.03;;;4.28;100.00
9419;BME280;4748;50.802;7.132;2023-01-28T13:58:32;102297.78;;;4.34;100.00
9419;BME280;4748;50.802;7.132;2023-01-28T14:01:12;102304.06;;;4.43;100.00
9419;BME280;4748;50.802;7.132;2023-01-28T14:07:13;102298.22;;;4.11;100.00
9419;BME280;4748;50.802;7.132;2023-01-28T14:20:52;102366.22;;;4.10;100.00
9419;BME280;4748;50.802;7.132;2023-01-28T14:23:20;102353.25;;;3.98;100.00
9419;BME280;4748;50.802;7.132;2023-01-28T14:26:00;102360.94;;;4.01;100.00
9419;BME280;4748;50.802;7.132;2023-01-28T14:29:14;102370.06;;;3.78;100.00
9419;BME280;4748;50.802;7.132;2023-01-28T14:31:42;102375.81;;;3.93;100.00
9419;BME280;4748;50.802;7.132;2023-01-28T14:36:40;102361.94;;;4.09;100.00
9419;BME280;4748;50.802;7.132;2023-01-28T14:39:16;102379.16;;;3.95;100.00
9419;BME280;4748;50.802;7.132;2023-01-28T14:41:45;102387.56;;;4.00;100.00
9419;BME280;4748;50.802;7.132;2023-01-28T14:44:22;102399.78;;;3.91;100.00
9419;BME280;4748;50.802;7.132;2023-01-28T14:47:00;102390.75;;;4.03;100.00
9419;BME280;4748;50.802;7.132;2023-01-28T14:55:20;102390.41;;;4.26;100.00
9419;BME280;4748;50.802;7.132;2023-01-28T14:57:53;102391.78;;;4.30;100.00
9419;BME280;4748;50.802;7.132;2023-01-28T15:00:33;102397.78;;;4.23;100.00
9419;BME280;4748;50.802;7.132;2023-01-28T15:02:59;102388.72;;;4.25;100.00
9419;BME280;4748;50.802;7.132;2023-01-28T15:05:28;102403.25;;;4.31;100.00
9419;BME280;4748;50.802;7.132;2023-01-28T15:07:54;102393.03;;;4.17;100.00
9419;BME280;4748;50.802;7.132;2023-01-28T15:10:28;102383.66;;;4.13;100.00